createdAt,value
2023-01-18T00:00:47.399Z,3.80
2023-01-18T00:03:14.351Z,3.80
2023-01-18T00:05:42.215Z,3.80
2023-01-18T00:08:13.927Z,3.90
2023-01-18T00:10:40.758Z,3.80
2023-01-18T00:13:07.540Z,3.80
2023-01-18T00:15:35.218Z,3.70
2023-01-18T00:18:02.319Z,3.70
2023-01-18T00:20:30.030Z,3.70
2023-01-18T00:22:58.979Z,3.70
2023-01-18T00:25:25.889Z,3.70
2023-01-18T00:27:54.194Z,3.70
2023-01-18T00:30:24.063Z,3.70
2023-01-18T00:32:58.490Z,3.70
2023-01-18T00:35:26.040Z,3.70
2023-01-18T00:37:53.866Z,3.70
2023-01-18T00:40:22.701Z,3.60
2023-01-18T00:43:08.129Z,3.40
2023-01-18T00:45:37.016Z,3.40
2023-01-18T00:48:03.808Z,3.40
2023-01-18T00:50:30.459Z,3.40
2023-01-18T00:52:58.727Z,3.40
2023-01-18T00:55:26.314Z,3.40
2023-01-18T00:57:52.998Z,3.40
2023-01-18T01:00:20.377Z,3.40
2023-01-18T01:02:47.110Z,3.40
2023-01-18T01:05:37.722Z,3.40
2023-01-18T01:08:05.799Z,3.40
2023-01-18T01:10:33.912Z,3.50
2023-01-18T01:13:19.390Z,3.60
2023-01-18T01:16:04.756Z,3.70
2023-01-18T01:18:50.263Z,3.70
2023-01-18T01:21:35.709Z,3.70
2023-01-18T01:24:21.090Z,3.60
2023-01-18T01:26:47.696Z,3.40
2023-01-18T01:29:14.453Z,3.40
2023-01-18T01:31:41.134Z,3.40
2023-01-18T01:34:07.881Z,3.50
2023-01-18T01:36:34.600Z,3.60
2023-01-18T01:39:01.307Z,3.60
2023-01-18T01:41:33.881Z,3.60
2023-01-18T01:44:06.335Z,3.60
2023-01-18T01:46:55.682Z,3.40
2023-01-18T01:49:36.675Z,3.20
2023-01-18T01:52:08.875Z,3.10
2023-01-18T01:54:37.890Z,3.10
2023-01-18T01:57:13.652Z,3.20
2023-01-18T01:59:45.442Z,3.30
2023-01-18T02:02:12.741Z,3.40
2023-01-18T02:04:44.125Z,3.40
2023-01-18T02:07:12.288Z,3.50
2023-01-18T02:09:39.409Z,3.50
2023-01-18T02:12:06.216Z,3.60
2023-01-18T02:14:33.060Z,3.60
2023-01-18T02:17:17.119Z,3.60
2023-01-18T02:20:25.323Z,3.70
2023-01-18T02:23:24.357Z,3.70
2023-01-18T02:26:28.129Z,3.80
2023-01-18T02:29:12.816Z,3.80
2023-01-18T02:31:49.134Z,3.80
2023-01-18T02:34:30.963Z,3.80
2023-01-18T02:37:25.039Z,3.60
2023-01-18T02:39:55.557Z,3.50
2023-01-18T02:42:44.175Z,3.40
2023-01-18T02:45:54.106Z,3.40
2023-01-18T02:48:23.493Z,3.40
2023-01-18T02:50:51.108Z,3.40
2023-01-18T02:53:17.759Z,3.40
2023-01-18T02:55:55.463Z,3.40
2023-01-18T02:58:37.801Z,3.30
2023-01-18T03:01:27.384Z,3.30
2023-01-18T03:04:03.459Z,3.30
2023-01-18T03:06:30.600Z,3.30
2023-01-18T03:08:59.688Z,3.20
2023-01-18T03:11:45.893Z,3.30
2023-01-18T03:14:39.679Z,3.20
2023-01-18T03:17:20.153Z,3.20
2023-01-18T03:20:07.613Z,3.30
2023-01-18T03:23:15.160Z,3.40
2023-01-18T03:25:50.964Z,3.50
2023-01-18T03:28:55.787Z,3.60
2023-01-18T03:31:57.081Z,3.50
2023-01-18T03:34:46.773Z,3.50
2023-01-18T03:37:25.009Z,3.50
2023-01-18T03:39:57.719Z,3.50
2023-01-18T03:42:35.657Z,3.50
2023-01-18T03:45:12.956Z,3.60
2023-01-18T03:47:40.067Z,3.50
2023-01-18T03:50:07.279Z,3.60
2023-01-18T03:52:46.667Z,3.60
2023-01-18T03:55:39.020Z,3.50
2023-01-18T03:58:11.755Z,3.30
2023-01-18T04:00:39.619Z,3.20
2023-01-18T04:03:06.487Z,3.10
2023-01-18T04:05:34.258Z,3.00
2023-01-18T04:08:00.906Z,3.00
2023-01-18T04:10:27.552Z,3.10
2023-01-18T04:12:54.151Z,3.20
2023-01-18T04:15:20.893Z,3.20
2023-01-18T04:17:52.967Z,3.30
2023-01-18T04:20:19.637Z,3.30
2023-01-18T04:22:54.489Z,3.30
2023-01-18T04:25:21.749Z,3.40
2023-01-18T04:27:48.482Z,3.50
2023-01-18T04:30:15.488Z,3.50
2023-01-18T04:32:42.824Z,3.60
2023-01-18T04:35:10.061Z,3.60
2023-01-18T04:37:38.275Z,3.60
2023-01-18T04:40:06.419Z,3.70
2023-01-18T04:42:33.260Z,3.70
2023-01-18T04:45:00.014Z,3.70
2023-01-18T04:47:29.031Z,3.80
2023-01-18T04:49:59.441Z,3.80
2023-01-18T04:52:26.740Z,3.80
2023-01-18T04:54:53.605Z,3.80
2023-01-18T04:57:20.290Z,3.90
2023-01-18T04:59:46.896Z,3.80
2023-01-18T05:02:15.087Z,3.90
2023-01-18T05:04:41.991Z,3.80
2023-01-18T05:07:08.768Z,3.80
2023-01-18T05:09:35.444Z,3.80
2023-01-18T05:12:02.089Z,3.70
2023-01-18T05:14:28.701Z,3.80
2023-01-18T05:16:55.304Z,3.60
2023-01-18T05:19:21.912Z,3.50
2023-01-18T05:21:48.578Z,3.50
2023-01-18T05:24:15.214Z,3.50
2023-01-18T05:26:41.815Z,3.50
2023-01-18T05:29:08.430Z,3.50
2023-01-18T05:31:35.085Z,3.50
2023-01-18T05:34:02.119Z,3.40
2023-01-18T05:36:28.785Z,3.40
2023-01-18T05:38:55.704Z,3.40
2023-01-18T05:41:22.618Z,3.40
2023-01-18T05:43:49.248Z,3.40
2023-01-18T05:46:15.983Z,3.40
2023-01-18T05:48:42.639Z,3.40
2023-01-18T05:51:11.152Z,3.50
2023-01-18T05:53:38.111Z,3.40
2023-01-18T05:56:06.364Z,3.40
2023-01-18T05:58:33.325Z,3.40
2023-01-18T06:01:00.035Z,3.50
2023-01-18T06:03:26.701Z,3.50
2023-01-18T06:05:53.436Z,3.60
2023-01-18T06:08:20.497Z,3.60
2023-01-18T06:10:57.994Z,3.70
2023-01-18T06:13:27.954Z,3.70
2023-01-18T06:15:55.177Z,3.70
2023-01-18T06:18:22.511Z,3.70
2023-01-18T06:20:49.637Z,3.70
2023-01-18T06:23:16.236Z,3.60
2023-01-18T06:25:43.334Z,3.50
2023-01-18T06:28:10.131Z,3.40
2023-01-18T06:30:36.750Z,3.20
2023-01-18T06:33:06.740Z,3.20
2023-01-18T06:35:37.187Z,3.10
2023-01-18T06:38:04.998Z,3.00
2023-01-18T06:40:31.863Z,2.90
2023-01-18T06:42:58.958Z,2.80
2023-01-18T06:45:26.398Z,2.70
2023-01-18T06:47:53.449Z,2.60
2023-01-18T06:50:20.270Z,2.40
2023-01-18T06:52:47.141Z,2.30
2023-01-18T06:55:14.983Z,2.20
2023-01-18T06:57:41.924Z,2.40
2023-01-18T07:00:10.689Z,2.00
2023-01-18T07:02:37.393Z,2.00
2023-01-18T07:05:04.933Z,2.00
2023-01-18T07:07:31.874Z,2.00
2023-01-18T07:09:58.508Z,2.10
2023-01-18T07:12:25.465Z,2.00
2023-01-18T07:14:52.223Z,2.00
2023-01-18T07:17:19.025Z,2.00
2023-01-18T07:19:45.718Z,1.90
2023-01-18T07:22:13.412Z,1.90
2023-01-18T07:24:40.079Z,1.90
2023-01-18T07:27:07.026Z,1.90
2023-01-18T07:29:33.704Z,1.90
2023-01-18T07:32:01.092Z,1.90
2023-01-18T07:34:27.836Z,1.90
2023-01-18T07:36:54.986Z,2.00
2023-01-18T07:39:21.653Z,2.00
2023-01-18T07:41:48.369Z,2.00
2023-01-18T07:44:15.202Z,2.10
2023-01-18T07:46:43.142Z,1.90
2023-01-18T07:49:09.892Z,1.90
2023-01-18T07:51:36.576Z,1.90
2023-01-18T07:54:03.269Z,1.80
2023-01-18T07:56:29.850Z,1.80
2023-01-18T07:58:56.565Z,1.80
2023-01-18T08:01:24.093Z,1.80
2023-01-18T08:03:51.276Z,1.80
2023-01-18T08:06:26.423Z,1.80
2023-01-18T08:08:55.827Z,1.80
2023-01-18T08:11:22.768Z,1.80
2023-01-18T08:13:50.486Z,1.70
2023-01-18T08:16:17.717Z,1.70
2023-01-18T08:18:48.086Z,1.80
2023-01-18T08:21:14.946Z,1.70
2023-01-18T08:23:42.073Z,1.70
2023-01-18T08:26:10.458Z,1.70
2023-01-18T08:28:37.168Z,1.70
2023-01-18T08:31:14.268Z,1.80
2023-01-18T08:33:46.905Z,1.80
2023-01-18T08:36:18.987Z,1.80
2023-01-18T08:38:51.294Z,1.70
2023-01-18T08:41:19.003Z,1.80
2023-01-18T08:43:50.489Z,1.80
2023-01-18T08:46:17.408Z,1.90
2023-01-18T08:48:44.068Z,1.90
2023-01-18T08:51:11.350Z,1.90
2023-01-18T08:53:38.050Z,1.80
2023-01-18T08:56:07.954Z,1.80
2023-01-18T08:58:34.618Z,1.80
2023-01-18T09:01:08.824Z,1.80
2023-01-18T09:03:36.605Z,1.90
2023-01-18T09:06:08.016Z,1.90
2023-01-18T09:08:34.954Z,1.90
2023-01-18T09:11:07.161Z,1.80
2023-01-18T09:13:34.724Z,1.80
2023-01-18T09:16:03.442Z,1.80
2023-01-18T09:18:30.319Z,1.90
2023-01-18T09:21:04.740Z,1.80
2023-01-18T09:23:31.334Z,1.90
2023-01-18T09:26:07.048Z,1.90
2023-01-18T09:28:33.984Z,2.00
2023-01-18T09:31:05.706Z,2.00
2023-01-18T09:33:37.965Z,2.00
2023-01-18T09:36:09.693Z,2.10
2023-01-18T09:38:37.880Z,2.00
2023-01-18T09:41:23.353Z,2.00
2023-01-18T09:43:54.533Z,2.00
2023-01-18T09:46:23.020Z,2.00
2023-01-18T09:48:57.067Z,2.00
2023-01-18T09:51:30.309Z,2.00
2023-01-18T09:54:24.737Z,2.10
2023-01-18T09:56:56.918Z,2.20
2023-01-18T09:59:30.462Z,2.20
2023-01-18T10:01:57.610Z,2.10
2023-01-18T10:04:36.170Z,2.00
2023-01-18T10:07:07.685Z,1.90
2023-01-18T10:09:43.510Z,1.90
2023-01-18T10:12:23.567Z,1.90
2023-01-18T10:15:28.184Z,2.00
2023-01-18T10:17:57.609Z,1.90
2023-01-18T10:20:50.373Z,1.90
2023-01-18T10:23:31.353Z,1.80
2023-01-18T10:26:11.356Z,1.70
2023-01-18T10:29:19.111Z,1.70
2023-01-18T10:31:55.622Z,1.60
2023-01-18T10:34:27.347Z,1.70
2023-01-18T10:36:58.667Z,1.70
2023-01-18T10:39:32.610Z,1.70
2023-01-18T10:42:04.029Z,1.60
2023-01-18T10:44:31.970Z,1.60
2023-01-18T10:47:01.303Z,1.60
2023-01-18T10:49:37.567Z,1.60
2023-01-18T10:52:31.415Z,1.60
2023-01-18T10:55:03.381Z,1.60
2023-01-18T10:57:52.128Z,1.60
2023-01-18T11:00:21.545Z,1.60
2023-01-18T11:02:51.060Z,1.60
2023-01-18T11:05:20.794Z,1.60
2023-01-18T11:07:47.925Z,1.50
2023-01-18T11:10:28.020Z,1.50
2023-01-18T11:12:54.839Z,1.50
2023-01-18T11:15:27.854Z,1.50
2023-01-18T11:17:58.008Z,1.50
2023-01-18T11:20:49.981Z,1.50
2023-01-18T11:23:18.557Z,1.60
2023-01-18T11:26:07.967Z,1.60
2023-01-18T11:29:04.648Z,1.70
2023-01-18T11:31:45.587Z,1.70
2023-01-18T11:34:28.083Z,1.70
2023-01-18T11:36:55.766Z,1.80
2023-01-18T11:39:33.078Z,1.70
2023-01-18T11:42:11.675Z,1.70
2023-01-18T11:44:51.875Z,1.70
2023-01-18T11:47:37.637Z,1.70
2023-01-18T11:50:33.729Z,1.70
2023-01-18T11:53:32.503Z,1.80
2023-01-18T11:56:08.964Z,1.70
2023-01-18T11:58:36.453Z,1.70
2023-01-18T12:01:27.576Z,1.70
2023-01-18T12:04:33.076Z,1.70
2023-01-18T12:07:24.425Z,1.70
2023-01-18T12:10:00.286Z,1.70
2023-01-18T12:12:34.746Z,1.70
2023-01-18T12:15:48.505Z,1.70
2023-01-18T12:18:21.773Z,1.70
2023-01-18T12:21:10.043Z,1.70
2023-01-18T12:23:58.541Z,1.70
2023-01-18T12:26:47.859Z,1.70
2023-01-18T12:29:36.947Z,1.60
2023-01-18T12:32:21.361Z,1.60
2023-01-18T12:35:00.357Z,1.60
2023-01-18T12:37:35.670Z,1.70
2023-01-18T12:40:24.433Z,1.60
2023-01-18T12:42:53.907Z,1.60
2023-01-18T12:45:44.645Z,1.60
2023-01-18T12:48:30.216Z,1.60
2023-01-18T12:51:00.317Z,1.60
2023-01-18T12:53:38.168Z,1.60
2023-01-18T12:56:19.995Z,1.60
2023-01-18T12:58:54.984Z,1.70
2023-01-18T13:01:24.925Z,1.60
2023-01-18T13:03:57.515Z,1.80
2023-01-18T13:06:25.896Z,1.70
2023-01-18T13:09:07.204Z,1.70
2023-01-18T13:11:37.270Z,1.70
2023-01-18T13:14:05.827Z,1.70
2023-01-18T13:17:10.708Z,1.60
2023-01-18T13:19:54.482Z,1.70
2023-01-18T13:22:37.464Z,1.70
2023-01-18T13:25:24.161Z,1.70
2023-01-18T13:28:02.469Z,1.80
2023-01-18T13:30:33.479Z,1.80
2023-01-18T13:33:00.665Z,1.90
2023-01-18T13:35:33.485Z,1.90
2023-01-18T13:38:09.965Z,1.90
2023-01-18T13:40:52.729Z,1.80
2023-01-18T13:43:37.447Z,1.80
2023-01-18T13:46:20.440Z,1.70
2023-01-18T13:48:50.784Z,1.70
2023-01-18T13:51:39.399Z,1.70
2023-01-18T13:54:07.702Z,1.70
2023-01-18T13:56:36.708Z,1.80
2023-01-18T13:59:23.219Z,1.80
2023-01-18T14:01:50.574Z,1.80
2023-01-18T14:04:32.970Z,1.80
2023-01-18T14:07:02.905Z,1.80
2023-01-18T14:09:42.437Z,1.80
2023-01-18T14:12:12.997Z,1.90
2023-01-18T14:14:58.764Z,1.90
2023-01-18T14:17:26.612Z,2.00
2023-01-18T14:19:57.360Z,2.00
2023-01-18T14:23:05.557Z,2.00
2023-01-18T14:25:56.573Z,2.00
2023-01-18T14:28:37.727Z,2.00
2023-01-18T14:31:07.509Z,2.00
2023-01-18T14:33:38.159Z,2.00
2023-01-18T14:36:06.621Z,2.00
2023-01-18T14:38:33.308Z,2.00
2023-01-18T14:41:05.661Z,1.90
2023-01-18T14:43:41.617Z,1.90
2023-01-18T14:46:21.026Z,1.90
2023-01-18T14:48:53.346Z,1.90
2023-01-18T14:51:28.427Z,1.90
2023-01-18T14:53:57.840Z,1.90
2023-01-18T14:56:30.219Z,1.90
2023-01-18T14:58:59.671Z,1.90
2023-01-18T15:01:34.303Z,1.90
2023-01-18T15:04:04.171Z,1.90
2023-01-18T15:06:48.694Z,1.80
2023-01-18T15:09:18.106Z,1.90
2023-01-18T15:11:45.669Z,1.90
2023-01-18T15:14:18.345Z,2.00
2023-01-18T15:16:48.531Z,1.90
2023-01-18T15:19:22.436Z,1.90
2023-01-18T15:21:49.541Z,1.90
2023-01-18T15:24:22.996Z,1.80
2023-01-18T15:27:00.800Z,1.80
2023-01-18T15:29:38.806Z,1.80
2023-01-18T15:32:14.797Z,1.80
2023-01-18T15:34:45.093Z,1.80
2023-01-18T15:37:24.296Z,1.80
2023-01-18T15:39:58.128Z,1.80
2023-01-18T15:42:38.586Z,1.80
2023-01-18T15:45:16.677Z,1.90
2023-01-18T15:47:50.099Z,1.90
2023-01-18T15:50:21.889Z,1.80
2023-01-18T15:53:06.853Z,1.80
2023-01-18T15:55:40.740Z,1.70
2023-01-18T15:58:11.139Z,1.80
2023-01-18T16:00:53.285Z,1.70
2023-01-18T16:03:23.234Z,1.70
2023-01-18T16:06:08.497Z,1.70
2023-01-18T16:08:35.378Z,1.70
2023-01-18T16:11:02.127Z,1.70
2023-01-18T16:13:40.162Z,1.60
2023-01-18T16:16:10.464Z,1.60
2023-01-18T16:18:37.134Z,1.60
2023-01-18T16:21:12.276Z,1.50
2023-01-18T16:23:44.123Z,1.50
2023-01-18T16:26:13.335Z,1.60
2023-01-18T16:28:40.184Z,1.50
2023-01-18T16:31:07.912Z,1.50
2023-01-18T16:33:34.683Z,1.50
2023-01-18T16:36:14.835Z,1.50
2023-01-18T16:38:41.543Z,1.50
2023-01-18T16:41:08.718Z,1.50
2023-01-18T16:43:36.686Z,1.50
2023-01-18T16:46:04.390Z,1.50
2023-01-18T16:48:33.595Z,1.50
2023-01-18T16:51:01.394Z,1.60
2023-01-18T16:53:28.876Z,1.60
2023-01-18T16:55:56.568Z,1.50
2023-01-18T16:58:24.004Z,1.60
2023-01-18T17:01:10.628Z,1.50
2023-01-18T17:03:37.385Z,1.60
2023-01-18T17:06:04.279Z,1.60
2023-01-18T17:08:30.970Z,1.60
2023-01-18T17:10:57.763Z,1.60
2023-01-18T17:13:24.944Z,1.60
2023-01-18T17:15:53.066Z,1.60
2023-01-18T17:18:25.532Z,1.50
2023-01-18T17:20:54.523Z,1.50
2023-01-18T17:23:21.865Z,1.50
2023-01-18T17:25:48.533Z,1.50
2023-01-18T17:28:17.830Z,1.50
2023-01-18T17:30:47.382Z,1.50
2023-01-18T17:33:19.682Z,1.50
2023-01-18T17:35:47.395Z,1.50
2023-01-18T17:38:23.270Z,1.50
2023-01-18T17:40:50.680Z,1.50
2023-01-18T17:43:28.450Z,1.60
2023-01-18T17:46:02.281Z,1.60
2023-01-18T17:48:29.593Z,1.60
2023-01-18T17:50:56.364Z,1.60
2023-01-18T17:53:23.139Z,1.60
2023-01-18T17:55:50.040Z,1.60
2023-01-18T17:58:16.756Z,1.60
2023-01-18T18:00:43.442Z,1.50
2023-01-18T18:03:10.372Z,1.60
2023-01-18T18:05:37.077Z,1.50
2023-01-18T18:08:03.981Z,1.50
2023-01-18T18:10:31.040Z,1.50
2023-01-18T18:12:57.899Z,1.50
2023-01-18T18:15:25.063Z,1.50
2023-01-18T18:17:51.736Z,1.50
2023-01-18T18:20:18.490Z,1.50
2023-01-18T18:22:45.216Z,1.50
2023-01-18T18:25:11.825Z,1.50
2023-01-18T18:27:47.280Z,1.50
2023-01-18T18:30:15.174Z,1.50
2023-01-18T18:32:41.929Z,1.40
2023-01-18T18:35:23.830Z,1.40
2023-01-18T18:37:53.855Z,1.40
2023-01-18T18:40:21.076Z,1.50
2023-01-18T18:43:00.836Z,1.50
2023-01-18T18:45:30.674Z,1.50
2023-01-18T18:47:57.417Z,1.50
2023-01-18T18:50:24.081Z,1.50
2023-01-18T18:52:50.736Z,1.50
2023-01-18T18:55:17.602Z,1.50
2023-01-18T18:57:44.314Z,1.50
2023-01-18T19:00:11.485Z,1.50
2023-01-18T19:02:38.253Z,1.60
2023-01-18T19:05:05.820Z,1.60
2023-01-18T19:07:34.726Z,1.60
2023-01-18T19:10:01.429Z,1.60
2023-01-18T19:12:28.034Z,1.70
2023-01-18T19:14:54.670Z,1.70
2023-01-18T19:17:30.464Z,1.70
2023-01-18T19:19:58.197Z,1.70
2023-01-18T19:22:25.203Z,1.60
2023-01-18T19:24:51.964Z,1.60
2023-01-18T19:27:18.678Z,1.60
2023-01-18T19:29:45.308Z,1.60
2023-01-18T19:32:12.009Z,1.60
2023-01-18T19:34:39.230Z,1.50
2023-01-18T19:37:06.382Z,1.50
2023-01-18T19:39:35.976Z,1.60
2023-01-18T19:42:02.835Z,1.60
2023-01-18T19:44:29.767Z,1.50
2023-01-18T19:46:56.961Z,1.60
2023-01-18T19:49:25.516Z,1.60
2023-01-18T19:51:53.297Z,1.50
2023-01-18T19:54:20.488Z,1.50
2023-01-18T19:56:47.160Z,1.50
2023-01-18T19:59:14.933Z,1.50
2023-01-18T20:01:41.948Z,1.50
2023-01-18T20:04:09.552Z,1.50
2023-01-18T20:06:40.763Z,1.50
2023-01-18T20:09:18.486Z,1.50
2023-01-18T20:11:46.056Z,1.50
2023-01-18T20:14:13.103Z,1.50
2023-01-18T20:16:39.908Z,1.50
2023-01-18T20:19:06.738Z,1.50
2023-01-18T20:21:33.438Z,1.50
2023-01-18T20:24:00.939Z,1.60
2023-01-18T20:26:36.796Z,1.60
2023-01-18T20:29:08.590Z,1.50
2023-01-18T20:31:36.787Z,1.50
2023-01-18T20:34:04.587Z,1.50
2023-01-18T20:36:32.224Z,1.50
2023-01-18T20:38:58.915Z,1.50
2023-01-18T20:41:25.542Z,1.40
2023-01-18T20:43:52.573Z,1.40
2023-01-18T20:46:19.531Z,1.40
2023-01-18T20:48:46.281Z,1.40
2023-01-18T20:51:13.057Z,1.40
2023-01-18T20:53:39.833Z,1.40
2023-01-18T20:56:23.299Z,1.40
2023-01-18T20:58:53.960Z,1.40
2023-01-18T21:01:20.993Z,1.40
2023-01-18T21:03:53.386Z,1.40
2023-01-18T21:06:20.130Z,1.40
2023-01-18T21:08:46.809Z,1.30
2023-01-18T21:11:14.935Z,1.30
2023-01-18T21:13:41.634Z,1.30
2023-01-18T21:16:08.393Z,1.30
2023-01-18T21:18:37.539Z,1.40
2023-01-18T21:21:04.528Z,1.40
2023-01-18T21:23:31.136Z,1.40
2023-01-18T21:26:01.471Z,1.40
2023-01-18T21:28:28.101Z,1.40
2023-01-18T21:30:56.324Z,1.40
2023-01-18T21:33:24.135Z,1.40
2023-01-18T21:35:52.793Z,1.30
2023-01-18T21:38:20.473Z,1.30
2023-01-18T21:40:47.109Z,1.20
2023-01-18T21:43:37.975Z,1.20
2023-01-18T21:46:07.520Z,1.20
2023-01-18T21:48:34.238Z,1.20
2023-01-18T21:51:21.482Z,1.20
2023-01-18T21:54:07.901Z,1.20
2023-01-18T21:56:36.868Z,1.10
2023-01-18T21:59:03.766Z,1.10
2023-01-18T22:01:39.010Z,1.10
2023-01-18T22:04:30.298Z,1.10
2023-01-18T22:07:00.674Z,1.10
2023-01-18T22:09:28.544Z,1.20
2023-01-18T22:11:58.490Z,1.20
2023-01-18T22:14:25.930Z,1.20
2023-01-18T22:16:53.248Z,1.10
2023-01-18T22:19:20.075Z,1.00
2023-01-18T22:21:47.595Z,1.10
2023-01-18T22:24:15.545Z,1.10
2023-01-18T22:26:42.756Z,1.10
2023-01-18T22:29:10.152Z,1.10
2023-01-18T22:31:37.582Z,1.10
2023-01-18T22:34:05.585Z,1.10
2023-01-18T22:36:33.384Z,1.10
2023-01-18T22:39:00.214Z,1.10
2023-01-18T22:41:29.005Z,1.10
2023-01-18T22:43:56.075Z,1.10
2023-01-18T22:46:23.860Z,1.10
2023-01-18T22:48:59.905Z,1.10
2023-01-18T22:51:27.842Z,1.10
2023-01-18T22:53:56.695Z,1.10
2023-01-18T22:56:27.442Z,1.10
2023-01-18T22:58:54.761Z,1.10
2023-01-18T23:01:28.153Z,1.10
2023-01-18T23:04:00.772Z,1.10
2023-01-18T23:06:28.884Z,1.20
2023-01-18T23:08:56.356Z,1.20
2023-01-18T23:11:29.108Z,1.20
2023-01-18T23:14:19.072Z,1.20
2023-01-18T23:17:04.836Z,1.10
2023-01-18T23:19:31.659Z,1.00
2023-01-18T23:21:58.383Z,0.90
2023-01-18T23:24:25.707Z,0.90
2023-01-18T23:26:52.690Z,0.90
2023-01-18T23:29:20.610Z,0.80
2023-01-18T23:31:48.942Z,0.70
2023-01-18T23:34:15.880Z,0.70
2023-01-18T23:36:42.823Z,0.60
2023-01-18T23:39:28.246Z,0.70
2023-01-18T23:42:13.605Z,0.60
2023-01-18T23:44:58.873Z,0.60
2023-01-18T23:47:44.200Z,0.50
2023-01-18T23:50:29.494Z,0.40
2023-01-18T23:53:14.900Z,0.40
2023-01-18T23:55:42.305Z,0.40
2023-01-18T23:58:09.022Z,0.30
